createdAt,value
2019-04-16T00:00:47.730Z,7.70
2019-04-16T00:01:53.241Z,7.70
2019-04-16T00:02:51.389Z,7.60
2019-04-16T00:03:39.494Z,7.60
2019-04-16T00:04:53.725Z,7.60
2019-04-16T00:05:42.085Z,7.50
2019-04-16T00:07:06.207Z,7.50
2019-04-16T00:08:19.383Z,7.50
2019-04-16T00:08:59.391Z,7.50
2019-04-16T00:10:02.464Z,7.30
2019-04-16T00:10:52.370Z,7.40
2019-04-16T00:11:56.587Z,7.40
2019-04-16T00:13:02.501Z,7.40
2019-04-16T00:14:11.537Z,7.40
2019-04-16T00:14:58.099Z,7.30
2019-04-16T00:15:44.606Z,7.30
2019-04-16T00:16:30.819Z,7.30
2019-04-16T00:17:16.869Z,7.30
2019-04-16T00:18:02.827Z,7.20
2019-04-16T00:18:57.211Z,7.20
2019-04-16T00:19:37.187Z,7.20
2019-04-16T00:20:23.116Z,7.20
2019-04-16T00:21:41.117Z,7.20
2019-04-16T00:22:32.632Z,7.20
2019-04-16T00:23:28.531Z,7.20
2019-04-16T00:24:25.194Z,7.20
2019-04-16T00:25:11.347Z,7.10
2019-04-16T00:25:57.242Z,7.10
2019-04-16T00:26:43.308Z,7.10
2019-04-16T00:27:29.582Z,7.10
2019-04-16T00:28:16.569Z,7.10
2019-04-16T00:29:03.223Z,7.10
2019-04-16T00:29:49.823Z,7.00
2019-04-16T00:30:37.074Z,7.00
2019-04-16T00:31:23.415Z,6.90
2019-04-16T00:32:25.920Z,6.90
2019-04-16T00:33:12.207Z,6.90
2019-04-16T00:33:58.618Z,6.90
2019-04-16T00:34:45.386Z,6.90
2019-04-16T00:35:32.075Z,6.90
2019-04-16T00:36:19.180Z,6.90
2019-04-16T00:37:05.763Z,6.90
2019-04-16T00:37:52.399Z,6.90
2019-04-16T00:38:41.049Z,6.80
2019-04-16T00:39:27.426Z,6.80
2019-04-16T00:40:14.961Z,6.80
2019-04-16T00:41:02.018Z,6.80
2019-04-16T00:41:48.871Z,6.80
2019-04-16T00:42:34.935Z,6.70
2019-04-16T00:43:21.520Z,6.70
2019-04-16T00:44:08.918Z,6.70
2019-04-16T00:44:55.545Z,6.70
2019-04-16T00:45:42.231Z,6.70
2019-04-16T00:46:29.339Z,6.70
2019-04-16T00:47:16.011Z,6.60
2019-04-16T00:48:02.415Z,6.60
2019-04-16T00:48:48.406Z,6.60
2019-04-16T00:49:37.675Z,6.60
2019-04-16T00:50:22.791Z,6.50
2019-04-16T00:51:08.983Z,6.50
2019-04-16T00:51:55.436Z,6.50
2019-04-16T00:52:41.492Z,6.50
2019-04-16T00:53:27.676Z,6.50
2019-04-16T00:54:13.879Z,6.40
2019-04-16T00:54:59.833Z,6.50
2019-04-16T00:55:46.180Z,6.40
2019-04-16T00:56:32.534Z,6.40
2019-04-16T00:57:19.102Z,6.30
2019-04-16T00:58:05.455Z,6.30
2019-04-16T00:58:52.036Z,6.30
2019-04-16T00:59:40.223Z,6.40
2019-04-16T01:00:27.753Z,6.40
2019-04-16T01:01:14.145Z,6.40
2019-04-16T01:02:00.348Z,6.40
2019-04-16T01:02:47.051Z,6.40
2019-04-16T01:03:34.508Z,6.40
2019-04-16T01:04:20.804Z,6.40
2019-04-16T01:05:06.862Z,6.30
2019-04-16T01:05:53.059Z,6.30
2019-04-16T01:06:40.637Z,6.30
2019-04-16T01:07:27.667Z,6.20
2019-04-16T01:08:13.813Z,6.20
2019-04-16T01:09:00.200Z,6.20
2019-04-16T01:09:46.693Z,6.20
2019-04-16T01:10:33.183Z,6.20
2019-04-16T01:11:19.220Z,6.20
2019-04-16T01:12:05.425Z,6.10
2019-04-16T01:12:51.306Z,6.10
2019-04-16T01:13:38.245Z,6.10
2019-04-16T01:14:26.763Z,6.10
2019-04-16T01:15:12.473Z,6.10
2019-04-16T01:16:02.514Z,6.00
2019-04-16T01:16:47.086Z,6.10
2019-04-16T01:17:35.955Z,6.00
2019-04-16T01:18:21.424Z,6.00
2019-04-16T01:19:09.998Z,6.10
2019-04-16T01:19:55.858Z,6.10
2019-04-16T01:20:43.269Z,6.20
2019-04-16T01:21:29.852Z,6.10
2019-04-16T01:22:16.720Z,6.10
2019-04-16T01:23:03.136Z,6.10
2019-04-16T01:23:49.650Z,6.00
2019-04-16T01:24:37.090Z,6.00
2019-04-16T01:25:24.049Z,6.00
2019-04-16T01:26:10.301Z,6.00
2019-04-16T01:26:58.275Z,6.00
2019-04-16T01:27:47.762Z,6.00
2019-04-16T01:28:36.216Z,6.00
2019-04-16T01:29:22.577Z,5.90
2019-04-16T01:30:11.017Z,5.90
2019-04-16T01:31:12.739Z,5.90
2019-04-16T01:32:36.024Z,5.90
2019-04-16T01:33:29.535Z,5.90
2019-04-16T01:34:34.012Z,5.80
2019-04-16T01:35:37.682Z,5.80
2019-04-16T01:36:45.009Z,5.80
2019-04-16T01:37:59.595Z,5.80
2019-04-16T01:39:10.856Z,5.90
2019-04-16T01:39:47.417Z,5.90
2019-04-16T01:40:39.931Z,5.90
2019-04-16T01:41:25.957Z,5.90
2019-04-16T01:42:12.596Z,5.90
2019-04-16T01:42:58.708Z,5.90
2019-04-16T01:43:44.828Z,5.80
2019-04-16T01:44:30.863Z,5.80
2019-04-16T01:45:16.852Z,5.70
2019-04-16T01:46:03.494Z,5.80
2019-04-16T01:46:49.597Z,5.70
2019-04-16T01:47:37.121Z,5.70
2019-04-16T01:48:23.255Z,5.70
2019-04-16T01:49:10.291Z,5.70
2019-04-16T01:49:57.384Z,5.70
2019-04-16T01:50:44.446Z,5.70
2019-04-16T01:51:30.787Z,5.60
2019-04-16T01:52:18.957Z,5.60
2019-04-16T01:53:04.667Z,5.60
2019-04-16T01:53:52.388Z,5.60
2019-04-16T01:54:38.692Z,5.60
2019-04-16T01:55:25.765Z,5.60
2019-04-16T01:56:12.545Z,5.60
2019-04-16T01:57:00.003Z,5.60
2019-04-16T01:57:46.248Z,5.60
2019-04-16T01:58:33.827Z,5.60
2019-04-16T01:59:20.643Z,5.60
2019-04-16T02:00:08.790Z,5.60
2019-04-16T02:00:55.313Z,5.60
2019-04-16T02:01:43.477Z,5.60
2019-04-16T02:02:29.802Z,5.60
2019-04-16T02:03:17.741Z,5.50
2019-04-16T02:04:04.576Z,5.60
2019-04-16T02:04:51.897Z,5.50
2019-04-16T02:05:38.824Z,5.50
2019-04-16T02:06:26.053Z,5.50
2019-04-16T02:07:13.088Z,5.40
2019-04-16T02:08:00.413Z,5.40
2019-04-16T02:08:46.733Z,5.40
2019-04-16T02:09:34.695Z,5.40
2019-04-16T02:10:21.328Z,5.40
2019-04-16T02:11:10.620Z,5.40
2019-04-16T02:11:55.939Z,5.30
2019-04-16T02:12:43.886Z,5.30
2019-04-16T02:13:30.005Z,5.40
2019-04-16T02:14:21.943Z,5.40
2019-04-16T02:15:06.817Z,5.40
2019-04-16T02:15:53.399Z,5.30
2019-04-16T02:16:40.415Z,5.40
2019-04-16T02:17:27.059Z,5.40
2019-04-16T02:18:13.803Z,5.30
2019-04-16T02:19:01.264Z,5.40
2019-04-16T02:19:47.967Z,5.30
2019-04-16T02:20:38.430Z,5.30
2019-04-16T02:21:23.708Z,5.30
2019-04-16T02:22:12.593Z,5.30
2019-04-16T02:22:57.544Z,5.30
2019-04-16T02:23:45.388Z,5.20
2019-04-16T02:24:32.324Z,5.20
2019-04-16T02:25:20.313Z,5.20
2019-04-16T02:26:06.344Z,5.20
2019-04-16T02:26:54.709Z,5.20
2019-04-16T02:27:40.138Z,5.20
2019-04-16T02:28:28.300Z,5.10
2019-04-16T02:29:14.029Z,5.10
2019-04-16T02:30:02.712Z,5.10
2019-04-16T02:30:49.021Z,5.10
2019-04-16T02:31:35.153Z,5.10
2019-04-16T02:32:21.319Z,5.20
2019-04-16T02:33:07.694Z,5.20
2019-04-16T02:34:01.013Z,5.20
2019-04-16T02:34:47.442Z,5.20
2019-04-16T02:35:33.471Z,5.30
2019-04-16T02:36:19.463Z,5.20
2019-04-16T02:37:05.755Z,5.20
2019-04-16T02:37:51.686Z,5.10
2019-04-16T02:38:37.613Z,5.10
2019-04-16T02:39:46.249Z,5.10
2019-04-16T02:40:16.617Z,5.10
2019-04-16T02:41:00.573Z,5.10
2019-04-16T02:41:46.676Z,5.10
2019-04-16T02:42:32.767Z,5.10
2019-04-16T02:43:18.904Z,5.10
2019-04-16T02:44:04.899Z,5.10
2019-04-16T02:44:51.093Z,5.10
2019-04-16T02:45:37.026Z,5.10
2019-04-16T02:46:23.352Z,5.10
2019-04-16T02:47:10.379Z,5.10
2019-04-16T02:47:56.660Z,5.10
2019-04-16T02:48:50.200Z,5.00
2019-04-16T02:49:31.766Z,5.00
2019-04-16T02:50:30.489Z,5.00
2019-04-16T02:51:39.620Z,5.00
2019-04-16T02:52:36.416Z,5.00
2019-04-16T02:53:40.469Z,5.00
2019-04-16T02:54:52.059Z,5.00
2019-04-16T02:55:48.068Z,5.00
2019-04-16T02:56:53.096Z,5.00
2019-04-16T02:57:59.996Z,5.00
2019-04-16T02:58:52.461Z,5.00
2019-04-16T02:59:45.735Z,4.90
2019-04-16T03:00:54.065Z,4.90
2019-04-16T03:01:54.492Z,4.80
2019-04-16T03:02:45.926Z,4.80
2019-04-16T03:03:37.426Z,4.80
2019-04-16T03:04:27.073Z,4.80
2019-04-16T03:05:29.036Z,4.80
2019-04-16T03:06:15.175Z,4.80
2019-04-16T03:07:03.286Z,4.80
2019-04-16T03:07:50.372Z,4.80
2019-04-16T03:08:36.931Z,4.80
2019-04-16T03:09:23.205Z,4.80
2019-04-16T03:10:12.019Z,4.80
2019-04-16T03:10:57.027Z,4.80
2019-04-16T03:11:45.551Z,4.80
2019-04-16T03:12:30.691Z,4.80
2019-04-16T03:13:17.034Z,4.80
2019-04-16T03:14:02.857Z,4.70
2019-04-16T03:14:48.862Z,4.80
2019-04-16T03:15:53.767Z,4.80
2019-04-16T03:17:02.520Z,4.80
2019-04-16T03:17:48.971Z,4.80
2019-04-16T03:18:39.567Z,4.80
2019-04-16T03:19:30.054Z,4.80
2019-04-16T03:20:16.768Z,4.80
2019-04-16T03:21:02.776Z,4.80
2019-04-16T03:21:49.194Z,4.80
2019-04-16T03:22:35.682Z,4.70
2019-04-16T03:23:23.306Z,4.70
2019-04-16T03:24:10.095Z,4.70
2019-04-16T03:24:56.330Z,4.60
2019-04-16T03:25:44.422Z,4.60
2019-04-16T03:26:30.106Z,4.70
2019-04-16T03:27:16.443Z,4.70
2019-04-16T03:28:02.628Z,4.70
2019-04-16T03:28:48.841Z,4.60
2019-04-16T03:29:35.295Z,4.60
2019-04-16T03:30:21.248Z,4.60
2019-04-16T03:31:09.536Z,4.60
2019-04-16T03:31:58.193Z,4.60
2019-04-16T03:32:50.423Z,4.60
2019-04-16T03:33:36.695Z,4.70
2019-04-16T03:34:23.036Z,4.60
2019-04-16T03:35:08.909Z,4.60
2019-04-16T03:35:57.636Z,4.60
2019-04-16T03:36:44.447Z,4.50
2019-04-16T03:37:33.078Z,4.50
2019-04-16T03:38:18.704Z,4.50
2019-04-16T03:39:06.133Z,4.50
2019-04-16T03:39:52.095Z,4.50
2019-04-16T03:40:38.052Z,4.50
2019-04-16T03:41:25.714Z,4.50
2019-04-16T03:42:12.299Z,4.50
2019-04-16T03:43:02.467Z,4.50
2019-04-16T03:43:47.849Z,4.50
2019-04-16T03:44:37.258Z,4.50
2019-04-16T03:45:22.517Z,4.50
2019-04-16T03:46:12.356Z,4.60
2019-04-16T03:46:58.607Z,4.50
2019-04-16T03:47:50.931Z,4.50
2019-04-16T03:48:34.597Z,4.50
2019-04-16T03:49:20.567Z,4.50
2019-04-16T03:50:06.970Z,4.40
2019-04-16T03:50:53.294Z,4.40
2019-04-16T03:51:39.871Z,4.50
2019-04-16T03:52:26.109Z,4.40
2019-04-16T03:53:16.651Z,4.40
2019-04-16T03:54:00.531Z,4.50
2019-04-16T03:54:46.475Z,4.40
2019-04-16T03:55:32.525Z,4.40
2019-04-16T03:56:18.638Z,4.40
2019-04-16T03:57:04.904Z,4.40
2019-04-16T03:57:51.173Z,4.40
2019-04-16T03:58:38.522Z,4.40
2019-04-16T03:59:25.697Z,4.40
2019-04-16T04:00:13.011Z,4.40
2019-04-16T04:00:59.699Z,4.40
2019-04-16T04:01:46.714Z,4.40
2019-04-16T04:02:33.322Z,4.40
2019-04-16T04:03:19.608Z,4.40
2019-04-16T04:04:06.142Z,4.40
2019-04-16T04:04:52.132Z,4.40
2019-04-16T04:05:38.373Z,4.40
2019-04-16T04:06:36.504Z,4.40
2019-04-16T04:07:24.402Z,4.40
2019-04-16T04:08:10.483Z,4.30
2019-04-16T04:08:56.351Z,4.40
2019-04-16T04:09:42.308Z,4.40
2019-04-16T04:10:30.782Z,4.40
2019-04-16T04:11:16.225Z,4.40
2019-04-16T04:12:03.657Z,4.30
2019-04-16T04:12:50.141Z,4.30
2019-04-16T04:13:36.416Z,4.30
2019-04-16T04:14:23.532Z,4.30
2019-04-16T04:15:09.907Z,4.30
2019-04-16T04:15:58.540Z,4.30
2019-04-16T04:16:45.179Z,4.40
2019-04-16T04:17:32.146Z,4.40
2019-04-16T04:18:18.400Z,4.40
2019-04-16T04:19:04.819Z,4.40
2019-04-16T04:19:51.229Z,4.40
2019-04-16T04:20:37.438Z,4.40
2019-04-16T04:21:24.087Z,4.40
2019-04-16T04:22:10.315Z,4.30
2019-04-16T04:22:57.207Z,4.30
2019-04-16T04:23:44.285Z,4.30
2019-04-16T04:24:31.379Z,4.30
2019-04-16T04:25:18.137Z,4.30
2019-04-16T04:26:05.510Z,4.30
2019-04-16T04:26:52.040Z,4.30
2019-04-16T04:27:38.663Z,4.30
2019-04-16T04:28:24.925Z,4.30
2019-04-16T04:29:10.945Z,4.30
2019-04-16T04:29:57.381Z,4.30
2019-04-16T04:30:43.897Z,4.20
2019-04-16T04:31:32.448Z,4.20
2019-04-16T04:32:17.996Z,4.20
2019-04-16T04:33:07.416Z,4.20
2019-04-16T04:33:51.896Z,4.20
2019-04-16T04:34:39.680Z,4.20
2019-04-16T04:35:26.155Z,4.20
2019-04-16T04:36:12.240Z,4.20
2019-04-16T04:36:59.696Z,4.20
2019-04-16T04:37:46.189Z,4.20
2019-04-16T04:38:33.688Z,4.20
2019-04-16T04:39:20.707Z,4.20
2019-04-16T04:40:06.687Z,4.20
2019-04-16T04:40:54.384Z,4.20
2019-04-16T04:41:40.968Z,4.20
2019-04-16T04:42:28.414Z,4.30
2019-04-16T04:43:15.431Z,4.30
2019-04-16T04:44:04.554Z,4.20
2019-04-16T04:44:50.440Z,4.20
2019-04-16T04:45:37.738Z,4.30
2019-04-16T04:46:24.391Z,4.30
2019-04-16T04:47:11.245Z,4.20
2019-04-16T04:47:58.839Z,4.20
2019-04-16T04:48:45.257Z,4.30
2019-04-16T04:49:32.820Z,4.20
2019-04-16T04:50:20.100Z,4.20
2019-04-16T04:51:08.156Z,4.30
2019-04-16T04:51:55.304Z,4.30
2019-04-16T04:52:43.234Z,4.30
2019-04-16T04:53:29.552Z,4.40
2019-04-16T04:54:15.868Z,4.30
2019-04-16T04:55:04.221Z,4.30
2019-04-16T04:55:50.606Z,4.30
2019-04-16T04:56:36.795Z,4.30
2019-04-16T04:57:23.303Z,4.30
2019-04-16T04:58:09.742Z,4.30
2019-04-16T04:58:55.675Z,4.30
2019-04-16T04:59:41.667Z,4.40
2019-04-16T05:00:27.666Z,4.30
2019-04-16T05:01:14.381Z,4.30
2019-04-16T05:02:01.043Z,4.30
2019-04-16T05:02:47.728Z,4.30
2019-04-16T05:03:47.395Z,4.30
2019-04-16T05:04:55.714Z,4.30
2019-04-16T05:05:53.362Z,4.40
2019-04-16T05:06:39.666Z,4.40
2019-04-16T05:07:29.064Z,4.40
2019-04-16T05:08:13.980Z,4.40
2019-04-16T05:09:00.409Z,4.40
2019-04-16T05:09:48.896Z,4.40
2019-04-16T05:10:39.887Z,4.40
2019-04-16T05:11:23.944Z,4.40
2019-04-16T05:12:10.580Z,4.40
2019-04-16T05:12:57.267Z,4.40
2019-04-16T05:13:43.380Z,4.40
2019-04-16T05:14:29.379Z,4.40
2019-04-16T05:15:15.331Z,4.40
2019-04-16T05:16:01.896Z,4.40
2019-04-16T05:16:48.953Z,4.50
2019-04-16T05:17:35.464Z,4.50
2019-04-16T05:18:23.056Z,4.50
2019-04-16T05:19:13.789Z,4.50
2019-04-16T05:19:57.233Z,4.50
2019-04-16T05:20:46.787Z,4.50
2019-04-16T05:21:31.754Z,4.50
2019-04-16T05:22:21.573Z,4.50
2019-04-16T05:23:07.185Z,4.60
2019-04-16T05:23:57.030Z,4.60
2019-04-16T05:24:43.260Z,4.60
2019-04-16T05:25:33.039Z,4.60
2019-04-16T05:26:17.469Z,4.60
2019-04-16T05:27:05.482Z,4.60
2019-04-16T05:27:51.319Z,4.60
2019-04-16T05:28:37.333Z,4.60
2019-04-16T05:29:24.837Z,4.70
2019-04-16T05:30:23.756Z,4.70
2019-04-16T05:31:24.154Z,4.70
2019-04-16T05:32:14.058Z,4.80
2019-04-16T05:33:17.086Z,4.80
2019-04-16T05:34:17.932Z,4.80
2019-04-16T05:35:13.556Z,4.80
2019-04-16T05:36:07.508Z,4.80
2019-04-16T05:36:56.992Z,4.90
2019-04-16T05:37:43.483Z,4.90
2019-04-16T05:38:29.490Z,4.90
2019-04-16T05:39:15.405Z,4.90
2019-04-16T05:40:01.363Z,5.00
2019-04-16T05:40:47.391Z,5.00
2019-04-16T05:41:33.862Z,5.00
2019-04-16T05:42:22.457Z,5.10
2019-04-16T05:43:08.683Z,5.10
2019-04-16T05:43:54.806Z,5.10
2019-04-16T05:46:46.457Z,5.10
2019-04-16T05:47:30.948Z,5.20
2019-04-16T05:48:18.594Z,5.30
2019-04-16T05:49:05.222Z,5.30
2019-04-16T05:49:51.486Z,5.30
2019-04-16T05:50:38.120Z,5.30
2019-04-16T05:51:24.783Z,5.40
2019-04-16T05:52:11.418Z,5.40
2019-04-16T05:52:57.553Z,5.50
2019-04-16T05:53:48.066Z,5.50
2019-04-16T05:54:44.513Z,5.50
2019-04-16T05:55:49.532Z,5.60
2019-04-16T05:56:43.915Z,5.60
2019-04-16T05:57:32.789Z,5.70
2019-04-16T05:58:19.186Z,5.70
2019-04-16T05:59:05.630Z,5.70
2019-04-16T05:59:51.972Z,5.70
2019-04-16T06:00:45.748Z,5.80
2019-04-16T06:01:57.236Z,5.80
2019-04-16T06:02:42.922Z,5.90
2019-04-16T06:03:28.912Z,5.90
2019-04-16T06:04:15.238Z,5.90
2019-04-16T06:05:01.204Z,6.00
2019-04-16T06:05:47.534Z,6.00
2019-04-16T06:06:33.598Z,6.00
2019-04-16T06:07:19.534Z,6.00
2019-04-16T06:08:10.446Z,6.10
2019-04-16T06:08:56.858Z,6.10
2019-04-16T06:09:44.379Z,6.10
2019-04-16T06:10:31.219Z,6.20
2019-04-16T06:11:28.082Z,6.20
2019-04-16T06:12:05.866Z,6.30
2019-04-16T06:13:12.642Z,6.30
2019-04-16T06:14:21.479Z,6.30
2019-04-16T06:15:21.301Z,6.30
2019-04-16T06:16:18.154Z,6.40
2019-04-16T06:17:31.961Z,6.40
2019-04-16T06:18:37.970Z,6.50
2019-04-16T06:19:32.862Z,6.60
2019-04-16T06:20:39.673Z,6.60
2019-04-16T06:21:56.744Z,6.60
2019-04-16T06:23:04.818Z,6.70
2019-04-16T06:24:03.390Z,6.80
2019-04-16T06:25:10.848Z,6.90
2019-04-16T06:26:16.873Z,6.80
2019-04-16T06:27:21.505Z,6.90
2019-04-16T06:28:12.787Z,7.00
2019-04-16T06:29:10.903Z,7.10
2019-04-16T06:30:15.815Z,7.10
2019-04-16T06:31:20.218Z,7.20
2019-04-16T06:32:27.809Z,7.20
2019-04-16T06:33:19.729Z,7.30
2019-04-16T06:34:15.308Z,7.30
2019-04-16T06:35:19.883Z,7.40
2019-04-16T06:36:44.200Z,7.50
2019-04-16T06:37:36.808Z,7.60
2019-04-16T06:38:26.725Z,7.70
2019-04-16T06:39:38.427Z,7.70
2019-04-16T06:40:38.159Z,7.70
2019-04-16T06:41:47.785Z,7.80
2019-04-16T06:42:41.953Z,7.80
2019-04-16T06:43:30.691Z,7.80
2019-04-16T06:44:21.036Z,7.90
2019-04-16T06:45:37.171Z,7.90
2019-04-16T06:46:32.493Z,7.90
2019-04-16T06:47:29.394Z,8.00
2019-04-16T06:48:23.877Z,8.00
2019-04-16T06:49:28.531Z,8.10
2019-04-16T06:50:39.692Z,8.20
2019-04-16T06:51:51.326Z,8.30
2019-04-16T06:52:46.247Z,8.30
2019-04-16T06:53:47.783Z,8.50
2019-04-16T06:55:11.703Z,8.50
2019-04-16T06:56:37.364Z,8.60
2019-04-16T06:57:43.020Z,8.70
2019-04-16T06:58:58.211Z,8.80
2019-04-16T07:00:15.990Z,8.90
2019-04-16T07:01:09.003Z,8.90
2019-04-16T07:02:13.555Z,9.00
2019-04-16T07:03:18.921Z,9.00
2019-04-16T07:04:11.303Z,9.10
2019-04-16T07:05:15.270Z,9.20
2019-04-16T07:06:35.937Z,9.30
2019-04-16T07:07:40.086Z,9.40
2019-04-16T07:08:50.885Z,9.40
2019-04-16T07:09:57.710Z,9.60
2019-04-16T07:10:56.192Z,9.70
2019-04-16T07:11:53.863Z,9.90
2019-04-16T07:12:37.971Z,10.00
2019-04-16T07:13:22.682Z,10.20
2019-04-16T07:14:15.566Z,10.30
2019-04-16T07:15:06.586Z,10.80
2019-04-16T07:15:56.958Z,12.40
2019-04-16T07:16:42.075Z,14.90
2019-04-16T07:17:33.156Z,16.80
2019-04-16T07:18:20.719Z,18.00
2019-04-16T07:19:10.189Z,19.00
2019-04-16T07:19:57.988Z,20.10
2019-04-16T07:20:46.637Z,20.90
2019-04-16T07:21:39.138Z,21.50
2019-04-16T07:22:25.418Z,22.10
2019-04-16T07:23:11.878Z,22.30
2019-04-16T07:23:58.776Z,22.30
2019-04-16T07:24:45.279Z,22.20
2019-04-16T07:25:32.306Z,21.90
2019-04-16T07:26:19.521Z,21.40
2019-04-16T07:27:06.114Z,20.40
2019-04-16T07:27:58.440Z,19.70
2019-04-16T07:29:03.644Z,19.30
2019-04-16T07:29:53.343Z,19.20
2019-04-16T07:30:46.153Z,19.20
2019-04-16T07:31:43.036Z,19.20
2019-04-16T07:32:37.987Z,19.20
2019-04-16T07:33:30.356Z,19.40
2019-04-16T07:34:37.266Z,20.00
2019-04-16T07:35:43.971Z,20.80
2019-04-16T07:36:33.722Z,22.50
2019-04-16T07:37:38.513Z,24.00
2019-04-16T07:38:31.267Z,25.00
2019-04-16T07:39:30.199Z,25.40
2019-04-16T07:40:42.702Z,25.90
2019-04-16T07:41:37.324Z,26.60
2019-04-16T07:42:35.103Z,27.00
2019-04-16T07:43:50.142Z,27.10
2019-04-16T07:44:55.027Z,27.20
2019-04-16T07:45:47.899Z,27.60
2019-04-16T07:46:48.691Z,27.90
2019-04-16T07:48:12.863Z,28.00
2019-04-16T07:49:18.551Z,27.80
2019-04-16T07:50:16.011Z,27.90
2019-04-16T07:51:39.822Z,26.90
2019-04-16T07:52:42.622Z,26.30
2019-04-16T07:54:02.271Z,25.80
2019-04-16T07:55:02.345Z,25.70
2019-04-16T07:55:51.459Z,25.60
2019-04-16T07:56:39.237Z,25.20
2019-04-16T07:57:25.712Z,24.80
2019-04-16T07:58:11.823Z,24.40
2019-04-16T07:59:01.331Z,24.10
2019-04-16T07:59:47.181Z,23.70
2019-04-16T08:00:40.113Z,23.60
2019-04-16T08:01:23.223Z,23.50
2019-04-16T08:02:09.389Z,23.70
2019-04-16T08:02:57.131Z,23.70
2019-04-16T08:03:43.476Z,23.60
2019-04-16T08:04:35.037Z,23.90
2019-04-16T08:05:17.580Z,24.20
2019-04-16T08:06:03.819Z,24.10
2019-04-16T08:06:51.417Z,24.20
2019-04-16T08:07:37.826Z,24.10
2019-04-16T08:08:24.596Z,24.40
2019-04-16T08:09:11.325Z,24.50
2019-04-16T08:10:01.721Z,24.80
2019-04-16T08:10:45.496Z,24.50
2019-04-16T08:11:31.430Z,24.80
2019-04-16T08:12:30.074Z,25.40
2019-04-16T08:13:34.943Z,26.10
2019-04-16T08:14:21.163Z,26.90
2019-04-16T08:15:14.817Z,27.40
2019-04-16T08:15:57.759Z,28.20
2019-04-16T08:16:47.518Z,28.60
2019-04-16T08:17:33.971Z,29.20
2019-04-16T08:18:20.391Z,30.00
2019-04-16T08:19:06.743Z,30.10
2019-04-16T08:19:55.144Z,30.30
2019-04-16T08:20:40.643Z,30.50
2019-04-16T08:21:35.948Z,31.20
2019-04-16T08:22:21.972Z,31.20
2019-04-16T08:23:43.131Z,31.80
2019-04-16T08:24:33.125Z,32.30
2019-04-16T08:25:25.647Z,33.10
2019-04-16T08:26:13.800Z,32.30
2019-04-16T08:27:00.061Z,33.00
2019-04-16T08:27:50.538Z,33.10
2019-04-16T08:28:35.513Z,32.90
2019-04-16T08:29:21.378Z,32.50
2019-04-16T08:30:09.838Z,33.40
2019-04-16T08:30:56.348Z,34.00
2019-04-16T08:31:46.667Z,34.00
2019-04-16T08:32:33.995Z,34.10
2019-04-16T08:33:21.384Z,34.00
2019-04-16T08:34:07.766Z,34.00
2019-04-16T08:34:55.766Z,33.30
2019-04-16T08:35:42.417Z,33.60
2019-04-16T08:36:28.659Z,34.10
2019-04-16T08:37:15.206Z,34.50
2019-04-16T08:38:01.692Z,34.10
2019-04-16T08:38:47.628Z,34.00
2019-04-16T08:39:36.842Z,34.20
2019-04-16T08:40:22.886Z,34.40
2019-04-16T08:41:12.463Z,34.30
2019-04-16T08:41:57.774Z,34.40
2019-04-16T08:42:44.931Z,34.10
2019-04-16T08:43:31.405Z,33.90
2019-04-16T08:44:17.287Z,34.60
2019-04-16T08:45:08.423Z,34.90
2019-04-16T08:45:53.148Z,34.90
2019-04-16T08:46:40.175Z,35.50
2019-04-16T08:47:27.437Z,35.20
2019-04-16T08:48:18.465Z,34.70
2019-04-16T08:49:02.019Z,34.30
2019-04-16T08:49:53.645Z,33.90
2019-04-16T08:50:36.347Z,34.00
2019-04-16T08:51:30.442Z,33.90
2019-04-16T08:52:11.134Z,34.30
2019-04-16T08:52:57.517Z,34.70
2019-04-16T08:53:46.695Z,35.30
2019-04-16T08:54:32.001Z,35.80
2019-04-16T08:55:20.489Z,35.80
2019-04-16T08:56:06.325Z,35.80
2019-04-16T08:56:52.189Z,35.90
2019-04-16T08:57:38.601Z,35.60
2019-04-16T08:58:24.565Z,34.10
2019-04-16T08:59:11.273Z,34.50
2019-04-16T08:59:57.935Z,34.90
2019-04-16T09:00:46.565Z,34.60
2019-04-16T09:01:34.370Z,34.20
2019-04-16T09:02:23.597Z,32.90
2019-04-16T09:03:09.019Z,33.00
2019-04-16T09:03:54.891Z,32.50
2019-04-16T09:04:41.441Z,32.70
2019-04-16T09:05:27.543Z,32.80
2019-04-16T09:06:14.314Z,32.90
2019-04-16T09:07:11.452Z,33.00
2019-04-16T09:07:50.922Z,33.00
2019-04-16T09:08:43.363Z,32.90
2019-04-16T09:09:33.802Z,33.30
2019-04-16T09:10:23.832Z,33.20
2019-04-16T09:11:21.767Z,33.20
2019-04-16T09:12:07.937Z,33.10
2019-04-16T09:13:02.429Z,33.20
2019-04-16T09:13:44.476Z,32.80
2019-04-16T09:14:33.457Z,31.80
2019-04-16T09:15:23.332Z,32.60
2019-04-16T09:16:10.984Z,32.90
2019-04-16T09:17:22.316Z,32.70
2019-04-16T09:18:24.173Z,32.50
2019-04-16T09:19:13.335Z,31.90
2019-04-16T09:20:12.492Z,32.50
2019-04-16T09:20:58.818Z,32.00
2019-04-16T09:21:44.770Z,32.20
2019-04-16T09:22:31.351Z,32.50
2019-04-16T09:23:17.603Z,32.50
2019-04-16T09:24:20.672Z,32.00
2019-04-16T09:25:16.190Z,32.10
2019-04-16T09:26:15.543Z,31.60
2019-04-16T09:27:13.566Z,32.30
2019-04-16T09:28:25.865Z,31.10
2019-04-16T09:29:39.354Z,31.30
2019-04-16T09:31:00.832Z,32.20
2019-04-16T09:32:15.645Z,32.20
2019-04-16T09:33:06.029Z,31.20
2019-04-16T09:34:14.931Z,31.50
2019-04-16T09:35:17.916Z,31.20
2019-04-16T09:36:24.411Z,32.00
2019-04-16T09:37:22.100Z,31.90
2019-04-16T09:38:18.323Z,31.90
2019-04-16T09:39:13.269Z,31.60
2019-04-16T09:40:27.599Z,32.20
2019-04-16T09:41:39.851Z,32.00
2019-04-16T09:42:26.171Z,31.50
2019-04-16T09:43:17.584Z,31.70
2019-04-16T09:44:04.482Z,31.80
2019-04-16T09:44:50.472Z,31.90
2019-04-16T09:45:37.293Z,32.20
2019-04-16T09:46:48.792Z,31.40
2019-04-16T09:47:12.396Z,31.30
2019-04-16T09:47:58.421Z,31.40
2019-04-16T09:48:44.419Z,31.50
2019-04-16T09:49:30.326Z,31.60
2019-04-16T09:50:16.715Z,31.80
2019-04-16T09:51:02.770Z,31.90
2019-04-16T09:51:50.445Z,31.80
2019-04-16T09:52:38.706Z,31.60
2019-04-16T09:53:33.429Z,31.50
2019-04-16T09:54:13.927Z,30.90
2019-04-16T09:55:00.298Z,30.70
2019-04-16T09:55:47.622Z,30.70
2019-04-16T09:56:34.267Z,30.50
2019-04-16T09:57:20.917Z,30.80
2019-04-16T09:58:15.498Z,30.50
2019-04-16T09:59:15.849Z,31.00
2019-04-16T10:00:03.613Z,30.60
2019-04-16T10:00:57.418Z,30.80
2019-04-16T10:01:48.822Z,30.80
2019-04-16T10:02:36.195Z,30.90
2019-04-16T10:03:31.813Z,30.80
2019-04-16T10:04:20.057Z,30.80
2019-04-16T10:05:06.376Z,30.50
2019-04-16T10:05:52.522Z,30.30
2019-04-16T10:06:38.445Z,30.30
2019-04-16T10:07:25.244Z,30.20
2019-04-16T10:08:12.653Z,30.10
2019-04-16T10:08:59.769Z,30.20
2019-04-16T10:09:46.068Z,30.30
2019-04-16T10:10:32.448Z,30.50
2019-04-16T10:11:19.457Z,30.30
2019-04-16T10:12:07.899Z,30.20
2019-04-16T10:12:54.150Z,30.10
2019-04-16T10:13:40.176Z,30.10
2019-04-16T10:14:26.594Z,29.70
2019-04-16T10:15:14.012Z,29.80
2019-04-16T10:16:00.383Z,29.90
2019-04-16T10:16:46.875Z,29.60
2019-04-16T10:17:33.714Z,29.30
2019-04-16T10:18:20.130Z,29.40
2019-04-16T10:19:08.399Z,29.20
2019-04-16T10:19:54.598Z,28.80
2019-04-16T10:20:41.972Z,28.70
2019-04-16T10:21:29.178Z,29.10
2019-04-16T10:22:15.328Z,29.20
2019-04-16T10:23:03.688Z,28.70
2019-04-16T10:24:09.507Z,28.50
2019-04-16T10:25:08.135Z,28.30
2019-04-16T10:25:54.539Z,27.90
2019-04-16T10:26:40.577Z,27.60
2019-04-16T10:28:04.936Z,27.70
2019-04-16T10:28:50.739Z,27.70
2019-04-16T10:29:36.832Z,27.30
2019-04-16T10:30:30.371Z,27.40
2019-04-16T10:31:17.999Z,27.10
2019-04-16T10:32:04.225Z,26.70
2019-04-16T10:32:50.522Z,26.50
2019-04-16T10:33:36.982Z,26.30
2019-04-16T10:34:23.444Z,26.30
2019-04-16T10:35:10.215Z,25.90
2019-04-16T10:35:57.615Z,26.00
2019-04-16T10:36:44.282Z,26.10
2019-04-16T10:37:30.369Z,26.00
2019-04-16T10:38:29.230Z,25.90
2019-04-16T10:39:35.843Z,25.90
2019-04-16T10:40:33.312Z,25.90
2019-04-16T10:41:26.635Z,25.70
2019-04-16T10:42:31.384Z,25.40
2019-04-16T10:43:44.432Z,25.40
2019-04-16T10:45:03.302Z,25.40
2019-04-16T10:46:09.828Z,25.30
2019-04-16T10:47:16.656Z,25.20
2019-04-16T10:48:33.615Z,25.50
2019-04-16T10:49:39.232Z,25.30
2019-04-16T10:50:47.201Z,25.50
2019-04-16T10:51:58.715Z,25.10
2019-04-16T10:53:02.332Z,25.20
2019-04-16T10:53:56.361Z,24.90
2019-04-16T10:54:51.440Z,25.20
2019-04-16T10:56:11.136Z,24.90
2019-04-16T10:57:15.485Z,24.40
2019-04-16T10:58:33.761Z,24.60
2019-04-16T10:59:38.171Z,23.90
2019-04-16T11:00:41.139Z,24.00
2019-04-16T11:01:40.922Z,23.90
2019-04-16T11:02:35.101Z,23.50
2019-04-16T11:03:28.541Z,23.70
2019-04-16T11:04:23.041Z,23.70
2019-04-16T11:05:34.820Z,23.50
2019-04-16T11:06:35.156Z,23.60
2019-04-16T11:07:24.361Z,23.80
2019-04-16T11:08:11.509Z,23.80
2019-04-16T11:08:57.797Z,23.80
2019-04-16T11:09:44.217Z,24.00
2019-04-16T11:10:30.415Z,24.00
2019-04-16T11:11:17.611Z,24.00
2019-04-16T11:12:05.286Z,23.80
2019-04-16T11:12:52.180Z,23.60
2019-04-16T11:13:41.354Z,23.50
2019-04-16T11:14:27.412Z,23.50
2019-04-16T11:15:18.374Z,23.70